createdAt,value
2018-12-13T00:01:04.943Z,10.90
2018-12-13T00:03:35.225Z,9.93
2018-12-13T00:06:04.451Z,10.08
2018-12-13T00:08:35.044Z,13.38
2018-12-13T00:11:04.467Z,10.95
2018-12-13T00:13:35.241Z,9.08
2018-12-13T00:16:04.454Z,10.03
2018-12-13T00:18:35.980Z,10.10
2018-12-13T00:21:05.659Z,9.93
2018-12-13T00:23:37.094Z,10.40
2018-12-13T00:26:06.687Z,9.83
2018-12-13T00:28:37.825Z,9.38
2018-12-13T00:31:07.766Z,8.55
2018-12-13T00:33:36.950Z,7.35
2018-12-13T00:36:06.237Z,10.05
2018-12-13T00:38:37.182Z,8.60
2018-12-13T00:41:06.429Z,10.03
2018-12-13T00:43:36.485Z,9.65
2018-12-13T00:46:05.680Z,10.75
2018-12-13T00:48:35.667Z,10.43
2018-12-13T00:51:05.035Z,11.03
2018-12-13T00:53:34.605Z,10.43
2018-12-13T00:56:03.831Z,10.68
2018-12-13T00:58:33.279Z,10.60
2018-12-13T01:01:02.642Z,9.80
2018-12-13T01:03:32.590Z,10.25
2018-12-13T01:06:03.130Z,10.58
2018-12-13T01:08:32.355Z,12.15
2018-12-13T01:11:01.661Z,10.85
2018-12-13T01:13:30.828Z,9.68
2018-12-13T01:16:00.027Z,8.95
2018-12-13T01:18:29.390Z,9.55
2018-12-13T01:20:59.265Z,8.70
2018-12-13T01:23:29.132Z,7.75
2018-12-13T01:25:59.065Z,9.08
2018-12-13T01:28:28.343Z,11.25
2018-12-13T01:30:57.833Z,9.88
2018-12-13T01:33:27.015Z,11.70
2018-12-13T01:35:56.162Z,10.88
2018-12-13T01:38:25.374Z,10.60
2018-12-13T01:40:56.705Z,8.98
2018-12-13T01:43:26.132Z,9.60
2018-12-13T01:45:55.334Z,9.13
2018-12-13T01:48:24.512Z,10.82
2018-12-13T01:50:55.902Z,10.55
2018-12-13T01:53:25.282Z,10.00
2018-12-13T01:55:55.918Z,9.85
2018-12-13T01:58:25.857Z,9.90
2018-12-13T02:00:55.119Z,10.23
2018-12-13T02:03:24.398Z,12.30
2018-12-13T02:05:53.931Z,11.03
2018-12-13T02:08:23.144Z,10.10
2018-12-13T02:10:52.487Z,10.53
2018-12-13T02:13:21.714Z,10.08
2018-12-13T02:15:50.877Z,9.73
2018-12-13T02:18:20.779Z,9.98
2018-12-13T02:20:50.128Z,10.78
2018-12-13T02:23:19.631Z,9.33
2018-12-13T02:25:49.276Z,9.53
2018-12-13T02:28:18.512Z,10.88
2018-12-13T02:30:50.594Z,10.32
2018-12-13T02:33:19.963Z,9.83
2018-12-13T02:35:49.162Z,11.35
2018-12-13T02:38:18.363Z,11.78
2018-12-13T02:40:49.597Z,10.65
2018-12-13T02:43:18.790Z,9.90
2018-12-13T02:45:47.967Z,10.55
2018-12-13T02:48:17.121Z,10.85
2018-12-13T02:50:48.445Z,11.25
2018-12-13T02:53:17.711Z,12.75
2018-12-13T02:55:46.977Z,12.82
2018-12-13T02:58:16.264Z,10.45
2018-12-13T03:00:46.470Z,10.85
2018-12-13T03:03:15.682Z,10.98
2018-12-13T03:05:45.946Z,10.25
2018-12-13T03:08:15.246Z,10.32
2018-12-13T03:10:45.302Z,11.55
2018-12-13T03:13:14.501Z,10.93
2018-12-13T03:15:45.782Z,11.05
2018-12-13T03:18:15.250Z,10.58
2018-12-13T03:20:46.700Z,11.53
2018-12-13T03:23:15.883Z,8.90
2018-12-13T03:25:46.344Z,10.68
2018-12-13T03:28:15.583Z,10.72
2018-12-13T03:30:48.154Z,10.65
2018-12-13T03:33:17.384Z,9.73
2018-12-13T03:35:48.118Z,11.48
2018-12-13T03:38:17.319Z,11.40
2018-12-13T03:40:49.039Z,10.13
2018-12-13T03:43:18.226Z,10.00
2018-12-13T03:45:48.688Z,9.78
2018-12-13T03:48:17.883Z,9.75
2018-12-13T03:50:48.313Z,10.28
2018-12-13T03:53:17.474Z,10.88
2018-12-13T03:55:47.399Z,11.40
2018-12-13T03:58:16.581Z,11.18
2018-12-13T04:00:47.814Z,11.08
2018-12-13T04:03:17.877Z,10.03
2018-12-13T04:05:49.190Z,10.82
2018-12-13T04:08:18.415Z,10.58
2018-12-13T04:10:48.497Z,10.08
2018-12-13T04:13:17.696Z,10.20
2018-12-13T04:15:47.854Z,11.48
2018-12-13T04:18:17.048Z,10.58
2018-12-13T04:20:48.455Z,10.60
2018-12-13T04:23:18.353Z,11.30
2018-12-13T04:25:48.388Z,10.88
2018-12-13T04:28:17.581Z,10.08
2018-12-13T04:30:51.790Z,11.48
2018-12-13T04:33:21.181Z,10.98
2018-12-13T04:35:50.331Z,11.75
2018-12-13T04:38:19.545Z,10.55
2018-12-13T04:40:50.854Z,10.63
2018-12-13T04:43:20.057Z,11.03
2018-12-13T04:45:50.251Z,10.15
2018-12-13T04:48:19.428Z,10.10
2018-12-13T04:50:49.374Z,10.55
2018-12-13T04:53:19.105Z,10.35
2018-12-13T04:55:48.970Z,11.60
2018-12-13T04:58:18.257Z,9.93
2018-12-13T05:00:49.206Z,9.85
2018-12-13T05:03:18.369Z,10.98
2018-12-13T05:05:47.667Z,10.70
2018-12-13T05:08:17.247Z,10.95
2018-12-13T05:10:53.424Z,11.45
2018-12-13T05:13:23.344Z,10.05
2018-12-13T05:15:52.593Z,11.40
2018-12-13T05:18:23.340Z,11.18
2018-12-13T05:20:54.174Z,11.70
2018-12-13T05:23:24.821Z,11.90
2018-12-13T05:25:54.845Z,10.13
2018-12-13T05:28:24.341Z,12.13
2018-12-13T05:30:53.949Z,10.18
2018-12-13T05:33:23.635Z,12.03
2018-12-13T05:35:54.163Z,10.10
2018-12-13T05:38:24.015Z,13.90
2018-12-13T05:41:00.644Z,11.83
2018-12-13T05:43:29.959Z,11.08
2018-12-13T05:45:59.357Z,11.65
2018-12-13T05:48:38.482Z,12.23
2018-12-13T05:51:13.230Z,11.60
2018-12-13T05:53:57.270Z,12.50
2018-12-13T05:56:26.492Z,13.53
2018-12-13T05:58:55.728Z,12.45
2018-12-13T06:01:25.003Z,13.25
2018-12-13T06:03:54.249Z,11.03
2018-12-13T06:06:23.463Z,12.68
2018-12-13T06:08:53.466Z,11.78
2018-12-13T06:11:23.140Z,13.10
2018-12-13T06:13:54.327Z,13.13
2018-12-13T06:16:23.514Z,11.83
2018-12-13T06:18:53.402Z,12.20
2018-12-13T06:21:22.674Z,13.58
2018-12-13T06:23:53.714Z,11.00
2018-12-13T06:26:23.325Z,11.65
2018-12-13T06:28:53.477Z,10.15
2018-12-13T06:31:33.422Z,12.18
2018-12-13T06:34:02.858Z,13.32
2018-12-13T06:36:32.069Z,11.73
2018-12-13T06:39:01.289Z,12.37
2018-12-13T06:41:31.842Z,12.70
2018-12-13T06:44:01.055Z,11.95
2018-12-13T06:46:31.184Z,13.68
2018-12-13T06:49:01.373Z,13.22
2018-12-13T06:51:30.808Z,12.70
2018-12-13T06:54:00.000Z,11.70
2018-12-13T06:56:29.419Z,10.78
2018-12-13T06:58:58.630Z,12.37
2018-12-13T07:01:27.896Z,12.73
2018-12-13T07:03:58.344Z,13.80
2018-12-13T07:06:28.870Z,12.28
2018-12-13T07:08:57.781Z,12.78
2018-12-13T07:11:27.023Z,11.70
2018-12-13T07:13:57.494Z,10.98
2018-12-13T07:16:28.036Z,10.65
2018-12-13T07:18:58.103Z,11.08
2018-12-13T07:21:27.488Z,12.93
2018-12-13T07:23:57.829Z,12.35
2018-12-13T07:26:27.128Z,11.83
2018-12-13T07:28:58.046Z,11.70
2018-12-13T07:31:27.580Z,11.70
2018-12-13T07:33:57.804Z,12.20
2018-12-13T07:36:27.396Z,12.45
2018-12-13T07:38:58.444Z,12.05
2018-12-13T07:41:28.030Z,9.43
2018-12-13T07:43:58.010Z,10.55
2018-12-13T07:46:27.197Z,11.85
2018-12-13T07:48:57.786Z,9.73
2018-12-13T07:51:31.160Z,11.15
2018-12-13T07:54:01.299Z,11.05
2018-12-13T07:56:31.909Z,12.75
2018-12-13T07:59:01.375Z,11.00
2018-12-13T08:01:32.620Z,12.95
2018-12-13T08:04:02.108Z,12.98
2018-12-13T08:06:31.687Z,13.90
2018-12-13T08:09:01.197Z,11.45
2018-12-13T08:11:31.689Z,13.18
2018-12-13T08:14:02.614Z,11.12
2018-12-13T08:16:32.171Z,11.90
2018-12-13T08:19:02.083Z,11.08
2018-12-13T08:21:31.431Z,11.40
2018-12-13T08:24:01.711Z,11.30
2018-12-13T08:26:30.951Z,9.55
2018-12-13T08:29:02.458Z,9.38
2018-12-13T08:31:35.113Z,10.95
2018-12-13T08:34:05.079Z,11.95
2018-12-13T08:36:35.175Z,10.60
2018-12-13T08:39:07.847Z,11.43
2018-12-13T08:41:38.305Z,12.03
2018-12-13T08:44:07.562Z,10.35
2018-12-13T08:46:36.852Z,11.05
2018-12-13T08:49:06.102Z,9.88
2018-12-13T08:51:35.414Z,14.10
2018-12-13T08:54:04.663Z,11.05
2018-12-13T08:56:34.158Z,11.00
2018-12-13T08:59:04.491Z,10.88
2018-12-13T09:01:33.943Z,12.98
2018-12-13T09:04:05.146Z,10.68
2018-12-13T09:06:35.330Z,10.50
2018-12-13T09:09:08.253Z,11.65
2018-12-13T09:11:40.011Z,10.20
2018-12-13T09:14:10.192Z,10.55
2018-12-13T09:16:40.964Z,12.23
2018-12-13T09:19:12.559Z,12.33
2018-12-13T09:21:42.058Z,12.13
2018-12-13T09:24:12.000Z,10.98
2018-12-13T09:26:41.662Z,11.05
2018-12-13T09:29:10.881Z,12.30
2018-12-13T09:31:43.445Z,10.75
2018-12-13T09:34:12.681Z,11.88
2018-12-13T09:36:42.053Z,12.82
2018-12-13T09:39:11.286Z,12.95
2018-12-13T09:41:42.872Z,11.70
2018-12-13T09:44:16.850Z,12.40
2018-12-13T09:46:48.059Z,11.22
2018-12-13T09:49:17.278Z,13.13
2018-12-13T09:51:46.477Z,11.57
2018-12-13T09:54:15.665Z,11.28
2018-12-13T09:56:45.249Z,11.88
2018-12-13T09:59:14.468Z,13.03
2018-12-13T10:01:43.712Z,13.88
2018-12-13T10:04:12.941Z,12.80
2018-12-13T10:06:42.180Z,13.45
2018-12-13T10:09:12.858Z,13.43
2018-12-13T10:11:42.248Z,13.40
2018-12-13T10:14:11.493Z,13.38
2018-12-13T10:16:41.693Z,13.25
2018-12-13T10:19:10.877Z,12.80
2018-12-13T10:22:02.347Z,12.53
2018-12-13T10:24:37.781Z,12.47
2018-12-13T10:27:08.607Z,11.73
2018-12-13T10:29:41.823Z,13.00
2018-12-13T10:32:11.868Z,13.25
2018-12-13T10:34:46.490Z,14.78
2018-12-13T10:37:15.709Z,13.98
2018-12-13T10:39:45.018Z,15.25
2018-12-13T10:42:14.169Z,13.32
2018-12-13T10:44:43.377Z,12.73
2018-12-13T10:47:13.814Z,14.40
2018-12-13T10:49:43.721Z,12.95
2018-12-13T10:52:12.983Z,10.93
2018-12-13T10:54:42.263Z,11.75
2018-12-13T10:57:12.202Z,12.85
2018-12-13T10:59:41.429Z,12.88
2018-12-13T11:02:20.114Z,12.07
2018-12-13T11:04:50.306Z,13.40
2018-12-13T11:07:20.253Z,12.80
2018-12-13T11:09:53.800Z,13.95
2018-12-13T11:12:23.434Z,14.10
2018-12-13T11:14:52.803Z,13.48
2018-12-13T11:17:24.635Z,14.25
2018-12-13T11:19:55.156Z,14.68
2018-12-13T11:22:25.363Z,12.98
2018-12-13T11:24:55.404Z,13.65
2018-12-13T11:29:42.290Z,16.02
2018-12-13T11:32:12.956Z,13.80
2018-12-13T11:34:42.689Z,14.40
2018-12-13T11:37:15.536Z,14.38
2018-12-13T11:39:48.860Z,14.35
2018-12-13T11:42:18.118Z,15.18
2018-12-13T11:44:53.302Z,15.00
2018-12-13T11:47:25.783Z,14.40
2018-12-13T11:50:01.992Z,15.50
2018-12-13T11:52:31.558Z,14.85
2018-12-13T11:55:08.839Z,16.67
2018-12-13T11:57:43.233Z,16.07
2018-12-13T12:00:27.004Z,12.85
2018-12-13T12:02:56.846Z,15.48
2018-12-13T12:05:26.135Z,14.40
2018-12-13T12:07:56.829Z,14.98
2018-12-13T12:10:28.686Z,16.00
2018-12-13T12:12:58.434Z,16.67
2018-12-13T12:15:29.512Z,18.35
2018-12-13T12:17:58.762Z,15.10
2018-12-13T12:20:28.525Z,14.85
2018-12-13T12:22:58.734Z,16.15
2018-12-13T12:25:30.662Z,17.67
2018-12-13T12:28:02.461Z,17.20
2018-12-13T12:30:34.306Z,14.15
2018-12-13T12:33:08.854Z,12.85
2018-12-13T12:35:38.039Z,15.35
2018-12-13T12:38:09.182Z,18.45
2018-12-13T12:40:44.321Z,18.00
2018-12-13T12:43:15.827Z,16.32
2018-12-13T12:45:46.075Z,17.37
2018-12-13T12:49:46.706Z,15.70
2018-12-13T12:52:16.908Z,15.10
2018-12-13T12:54:46.475Z,16.57
2018-12-13T12:57:19.061Z,15.48
2018-12-13T12:59:49.315Z,16.80
2018-12-13T13:02:20.719Z,15.23
2018-12-13T13:04:50.268Z,17.20
2018-12-13T13:07:19.993Z,17.82
2018-12-13T13:09:53.683Z,18.73
2018-12-13T13:12:23.518Z,17.92
2018-12-13T13:14:53.545Z,16.65
2018-12-13T13:17:26.050Z,19.82
2018-12-13T13:20:00.545Z,17.45
2018-12-13T13:22:29.909Z,13.48
2018-12-13T13:24:59.340Z,12.88
2018-12-13T13:27:31.261Z,15.25
2018-12-13T13:30:07.974Z,17.02
2018-12-13T13:32:37.446Z,15.25
2018-12-13T13:35:12.191Z,17.20
2018-12-13T13:37:44.406Z,17.70
2018-12-13T13:40:15.989Z,17.60
2018-12-13T13:42:45.963Z,14.85
2018-12-13T13:45:17.201Z,17.82
2018-12-13T13:47:46.518Z,17.17
2018-12-13T13:50:20.135Z,18.15
2018-12-13T13:52:49.408Z,16.32
2018-12-13T13:55:19.227Z,15.03
2018-12-13T13:57:49.366Z,15.70
2018-12-13T14:00:23.260Z,15.68
2018-12-13T14:02:53.427Z,17.45
2018-12-13T14:05:23.298Z,16.07
2018-12-13T14:07:53.459Z,16.20
2018-12-13T14:10:23.277Z,16.27
2018-12-13T14:12:54.012Z,16.85
2018-12-13T14:15:24.275Z,18.73
2018-12-13T14:17:53.495Z,15.55
2018-12-13T14:20:23.027Z,15.28
2018-12-13T14:22:56.285Z,16.02
2018-12-13T14:25:32.077Z,14.58
2018-12-13T14:28:01.931Z,14.85
2018-12-13T14:30:32.249Z,16.25
2018-12-13T14:33:01.529Z,14.65
2018-12-13T14:35:31.927Z,17.32
2018-12-13T14:38:02.285Z,15.70
2018-12-13T14:40:32.666Z,14.28
2018-12-13T14:43:01.817Z,16.32
2018-12-13T14:45:31.103Z,13.90
2018-12-13T14:48:21.691Z,14.78
2018-12-13T14:51:02.677Z,14.55
2018-12-13T14:53:31.896Z,15.38
2018-12-13T14:56:03.103Z,16.12
2018-12-13T14:58:32.392Z,14.90
2018-12-13T15:01:01.705Z,16.35
2018-12-13T15:03:31.600Z,15.70
2018-12-13T15:06:01.546Z,15.68
2018-12-13T15:08:31.814Z,16.48
2018-12-13T15:11:02.056Z,16.17
2018-12-13T15:13:33.710Z,15.08
2018-12-13T15:16:04.034Z,17.55
2018-12-13T15:18:33.706Z,17.17
2018-12-13T15:21:04.730Z,17.90
2018-12-13T15:23:34.591Z,16.12
2018-12-13T15:26:04.566Z,16.67
2018-12-13T15:28:34.785Z,17.60
2018-12-13T15:31:04.890Z,15.25
2018-12-13T15:33:35.053Z,17.73
2018-12-13T15:36:05.975Z,16.45
2018-12-13T15:38:36.595Z,17.45
2018-12-13T15:41:07.377Z,16.62
2018-12-13T15:43:36.608Z,15.25
2018-12-13T15:46:16.463Z,14.90
2018-12-13T15:48:51.764Z,18.40
2018-12-13T15:57:29.417Z,18.60
2018-12-13T16:01:34.342Z,15.93
2018-12-13T16:04:09.857Z,14.70
2018-12-13T16:06:45.390Z,15.68
2018-12-13T16:09:21.383Z,16.02
2018-12-13T16:11:57.656Z,16.07
2018-12-13T16:14:33.058Z,15.10
2018-12-13T16:20:10.272Z,14.30
2018-12-13T16:22:45.806Z,15.25
2018-12-13T16:25:21.277Z,14.65
2018-12-13T16:27:52.409Z,14.55
2018-12-13T16:30:28.866Z,13.05
2018-12-13T16:33:03.902Z,14.07
2018-12-13T16:35:38.685Z,15.10
2018-12-13T16:38:15.618Z,13.98
2018-12-13T16:40:50.816Z,13.80
2018-12-13T16:43:27.517Z,12.18
2018-12-13T16:46:00.207Z,13.22
2018-12-13T16:48:36.095Z,13.32
2018-12-13T16:51:10.107Z,12.03
2018-12-13T16:53:46.117Z,12.85
2018-12-13T16:56:21.270Z,14.73
2018-12-13T16:58:54.137Z,22.25
2018-12-13T17:01:37.127Z,19.12
2018-12-13T17:04:10.891Z,16.27
2018-12-13T17:06:43.948Z,31.02
2018-12-13T17:09:20.094Z,28.25
2018-12-13T17:11:55.048Z,26.02
2018-12-13T17:14:31.406Z,13.85
2018-12-13T17:17:04.620Z,13.20
2018-12-13T17:19:43.154Z,15.43
2018-12-13T17:22:15.822Z,19.32
2018-12-13T17:24:50.549Z,14.00
2018-12-13T17:27:23.361Z,15.08
2018-12-13T17:30:00.630Z,14.00
2018-12-13T17:32:36.743Z,14.07
2018-12-13T17:35:18.364Z,12.47
2018-12-13T17:37:53.853Z,12.30
2018-12-13T17:40:34.989Z,15.20
2018-12-13T17:43:10.208Z,15.20
2018-12-13T17:45:45.577Z,14.20
2018-12-13T17:48:20.368Z,12.85
2018-12-13T17:53:47.710Z,16.50
2018-12-13T17:56:26.549Z,13.15
2018-12-13T17:58:59.743Z,12.28
2018-12-13T18:01:34.911Z,12.58
2018-12-13T18:04:05.511Z,14.00
2018-12-13T18:06:43.294Z,13.00
2018-12-13T18:09:18.757Z,13.45
2018-12-13T18:11:54.091Z,14.85
2018-12-13T18:14:29.869Z,36.58
2018-12-13T18:17:06.127Z,15.13
2018-12-13T18:19:47.676Z,13.75
2018-12-13T18:22:22.755Z,17.70
2018-12-13T18:24:58.279Z,20.75
2018-12-13T18:27:34.114Z,16.85
2018-12-13T18:30:10.447Z,16.73
2018-12-13T18:35:29.141Z,13.22
2018-12-13T18:38:11.662Z,15.18
2018-12-13T18:40:50.545Z,13.20
2018-12-13T18:46:35.327Z,13.25
2018-12-13T18:49:11.378Z,14.45
2018-12-13T18:51:57.392Z,14.07
2018-12-13T18:54:39.290Z,12.88
2018-12-13T18:57:17.955Z,14.07
2018-12-13T19:00:06.441Z,13.25
2018-12-13T19:03:03.236Z,12.93
2018-12-13T19:05:51.786Z,14.95
2018-12-13T19:08:30.306Z,14.43
2018-12-13T19:11:28.628Z,12.15
2018-12-13T19:14:21.039Z,14.78
2018-12-13T19:17:06.926Z,15.93
2018-12-13T19:19:58.820Z,14.07
2018-12-13T19:25:41.739Z,14.73
2018-12-13T19:28:20.084Z,12.98
2018-12-13T19:33:55.749Z,11.97
2018-12-13T19:36:41.539Z,15.55
2018-12-13T19:39:21.801Z,15.83
2018-12-13T19:42:04.063Z,15.83
2018-12-13T19:44:48.848Z,14.50
2018-12-13T19:50:12.039Z,13.55
2018-12-13T19:55:54.530Z,14.30
2018-12-13T19:58:46.541Z,15.30
2018-12-13T20:01:25.084Z,13.98
2018-12-13T20:04:07.665Z,16.70
2018-12-13T20:06:48.603Z,13.13
2018-12-13T20:09:31.582Z,13.05
2018-12-13T20:12:17.357Z,12.93
2018-12-13T20:14:57.042Z,14.18
2018-12-13T20:17:41.673Z,13.70
2018-12-13T20:23:42.931Z,13.20
2018-12-13T20:26:29.082Z,13.15
2018-12-13T20:29:13.561Z,13.78
2018-12-13T20:31:53.536Z,14.20
2018-12-13T20:34:32.144Z,13.95
2018-12-13T20:37:10.633Z,15.35
2018-12-13T20:39:51.739Z,15.78
2018-12-13T20:42:30.222Z,12.88
2018-12-13T20:45:09.561Z,15.85
2018-12-13T20:47:49.201Z,14.38
2018-12-13T20:50:28.192Z,16.40
2018-12-13T20:53:14.856Z,14.95
2018-12-13T20:58:51.969Z,14.68
2018-12-13T21:01:34.323Z,14.80
2018-12-13T21:10:08.391Z,14.05
2018-12-13T21:13:02.723Z,13.48
2018-12-13T21:15:47.151Z,16.77
2018-12-13T21:18:34.278Z,14.40
2018-12-13T21:21:15.820Z,14.78
2018-12-13T21:24:11.065Z,12.13
2018-12-13T21:26:50.385Z,15.10
2018-12-13T21:35:42.574Z,14.95
2018-12-13T21:41:27.487Z,15.70
2018-12-13T21:46:54.699Z,12.80
2018-12-13T21:49:37.275Z,13.53
2018-12-13T21:52:35.014Z,14.73
2018-12-13T21:55:25.341Z,16.97
2018-12-13T21:58:16.025Z,16.75
2018-12-13T22:01:09.565Z,13.62
2018-12-13T22:13:05.694Z,19.52
2018-12-13T22:19:05.677Z,16.05
2018-12-13T22:52:18.216Z,14.85
2018-12-13T22:58:06.399Z,15.90
2018-12-13T23:03:56.010Z,14.28
2018-12-13T23:06:49.568Z,13.22
2018-12-13T23:09:34.132Z,16.50
2018-12-13T23:12:21.523Z,13.85
2018-12-13T23:14:59.942Z,18.37
2018-12-13T23:17:49.360Z,14.87
